Time;durP1;ratioP1;P1;durP2;ratioP2;P2;SDS_P1;SDS_P2;PMS_P1;PMS_P2;Temp;Humidity;BMP_temperature;BMP_pressure;BME280_temperature;BME280_humidity;BME280_pressure;Samples;Min_cycle;Max_cycle;Signal;HPM_P1;HPM_P2
2021/09/27 00:02:11;;;;;;;3.87;1.70;;;;;;;9.96;67.41;100691.48;1678173;84;22179;-69
2021/09/27 00:04:37;;;;;;;4.45;1.90;;;;;;;9.94;67.46;100689.44;1660493;84;20966;-69
2021/09/27 00:07:04;;;;;;;3.27;1.52;;;;;;;9.89;67.63;100689.39;1668756;84;21027;-69
2021/09/27 00:09:33;;;;;;;3.85;1.65;;;;;;;9.87;67.78;100682.91;1694807;84;20986;-68
2021/09/27 00:12:03;;;;;;;4.37;1.55;;;;;;;9.84;67.76;100680.95;1686113;85;21075;-69
2021/09/27 00:14:29;;;;;;;3.30;2.08;;;;;;;9.82;67.88;100680.22;1683139;84;22518;-69
2021/09/27 00:16:56;;;;;;;5.12;1.50;;;;;;;9.81;67.99;100681.17;1666531;84;20964;-69
2021/09/27 00:19:24;;;;;;;4.90;1.77;;;;;;;9.80;67.99;100686.09;1698601;83;21434;-69
2021/09/27 00:21:51;;;;;;;3.87;2.02;;;;;;;9.76;68.07;100689.43;1696972;84;21040;-68
2021/09/27 00:24:19;;;;;;;4.22;1.70;;;;;;;9.73;68.17;100686.52;1640972;86;21058;-68
2021/09/27 00:26:46;;;;;;;4.42;1.82;;;;;;;9.72;68.17;100687.94;1657165;86;22490;-68
2021/09/27 00:29:13;;;;;;;3.22;1.80;;;;;;;9.72;68.21;100688.78;1673348;85;21441;-68
2021/09/27 00:31:40;;;;;;;3.65;1.90;;;;;;;9.71;68.19;100685.78;1648078;86;21071;-67
2021/09/27 00:34:06;;;;;;;2.70;1.57;;;;;;;9.71;68.26;100688.90;1638928;87;21039;-68
2021/09/27 00:36:32;;;;;;;5.50;1.80;;;;;;;9.66;68.37;100691.88;1657859;85;21027;-67
2021/09/27 00:38:59;;;;;;;4.83;1.70;;;;;;;9.62;68.45;100693.02;1658488;86;22445;-68
2021/09/27 00:41:26;;;;;;;4.40;2.00;;;;;;;9.61;68.48;100688.70;1672774;84;20867;-67
2021/09/27 00:43:52;;;;;;;5.47;1.80;;;;;;;9.61;68.47;100692.66;1644816;86;21072;-68
2021/09/27 00:46:23;;;;;;;3.77;1.90;;;;;;;9.59;68.57;100696.36;1641622;87;22444;-67
2021/09/27 00:48:49;;;;;;;5.33;1.65;;;;;;;9.57;68.59;100693.84;1634290;85;21063;-67
2021/09/27 00:51:19;;;;;;;5.50;1.80;;;;;;;9.56;68.68;100700.55;1644492;86;22213;-68
2021/09/27 00:53:56;;;;;;;3.52;1.50;;;;;;;9.53;68.84;100706.85;1667378;86;20848;-68
2021/09/27 00:56:30;;;;;;;2.65;1.50;;;;;;;9.50;68.87;100704.91;1665613;85;21031;-68
2021/09/27 00:58:57;;;;;;;3.35;1.50;;;;;;;9.48;68.96;100701.55;1666296;86;21001;-67
2021/09/27 01:01:23;;;;;;;2.35;1.50;;;;;;;9.43;69.04;100704.48;1662005;86;21045;-68
2021/09/27 01:03:50;;;;;;;5.20;1.80;;;;;;;9.41;69.07;100703.28;1673573;85;21677;-68
2021/09/27 01:06:53;;;;;;;4.30;1.57;;;;;;;9.39;69.10;100709.14;1642863;86;20964;-67
2021/09/27 01:09:30;;;;;;;3.37;1.57;;;;;;;9.36;69.18;100708.05;1658953;85;21071;-68
2021/09/27 01:12:25;;;;;;;3.00;1.72;;;;;;;9.36;69.31;100707.17;1673740;85;21106;-68
2021/09/27 01:15:15;;;;;;;3.27;1.60;;;;;;;9.35;69.32;100704.17;1649405;86;21429;-68
2021/09/27 01:17:56;;;;;;;2.92;1.62;;;;;;;9.36;69.40;100712.44;1643194;85;21523;-68
2021/09/27 01:20:43;;;;;;;3.75;1.60;;;;;;;9.36;69.55;100713.77;1652851;86;21458;-68
2021/09/27 01:23:52;;;;;;;4.47;1.62;;;;;;;9.36;69.61;100709.81;1664007;84;21011;-69
2021/09/27 01:26:59;;;;;;;2.70;1.55;;;;;;;9.36;69.70;100711.13;1702440;84;21039;-68
2021/09/27 01:29:54;;;;;;;4.47;1.50;;;;;;;9.36;69.75;100707.17;1700854;82;20968;-67
2021/09/27 01:32:38;;;;;;;3.05;1.45;;;;;;;9.36;69.76;100712.44;1705886;83;21857;-68
2021/09/27 01:35:17;;;;;;;;;;;;;;;9.35;69.77;100710.28;1684700;83;20948;-68
2021/09/27 01:38:01;;;;;;;4.65;1.40;;;;;;;9.35;69.78;100716.88;1676893;84;20200;-68
2021/09/27 01:40:34;;;;;;;;;;;;;;;9.33;69.79;100720.09;1680366;84;21415;-68
2021/09/27 01:43:38;;;;;;;2.98;1.52;;;;;;;9.31;69.92;100714.09;1700876;82;20149;-68
2021/09/27 01:46:14;;;;;;;3.83;1.35;;;;;;;9.30;70.03;100730.02;1704825;82;21872;-68
2021/09/27 01:48:51;;;;;;;4.17;1.72;;;;;;;9.30;70.08;100724.27;1677014;84;20921;-68
2021/09/27 01:51:57;;;;;;;4.37;1.50;;;;;;;9.32;70.11;100738.66;1704860;82;20996;-68
2021/09/27 01:54:45;;;;;;;3.92;1.50;;;;;;;9.34;70.12;100733.64;1703119;83;21019;-68
2021/09/27 01:57:23;;;;;;;3.72;1.60;;;;;;;9.35;70.12;100745.03;1705460;83;21017;-68
2021/09/27 02:00:20;;;;;;;2.98;1.30;;;;;;;9.34;70.11;100737.59;1700424;82;21837;-68
2021/09/27 02:03:12;;;;;;;2.60;1.60;;;;;;;9.31;70.13;100739.13;1706128;82;20953;-69
2021/09/27 02:05:44;;;;;;;4.62;1.40;;;;;;;9.31;70.14;100738.30;1704809;83;21050;-69
2021/09/27 02:08:19;;;;;;;3.90;1.60;;;;;;;9.27;70.14;100742.94;1700004;83;21103;-68
2021/09/27 02:11:02;;;;;;;3.60;1.40;;;;;;;9.25;70.17;100747.92;1700143;83;20954;-68
2021/09/27 02:13:43;;;;;;;5.10;1.50;;;;;;;9.22;70.27;100748.14;1730413;82;22074;-70
2021/09/27 02:16:17;;;;;;;4.47;1.55;;;;;;;9.14;70.41;100741.59;1705287;83;22200;-67
2021/09/27 02:18:54;;;;;;;2.00;1.35;;;;;;;9.10;70.64;100744.55;1702580;82;21111;-67
2021/09/27 02:21:25;;;;;;;2.00;1.30;;;;;;;9.08;70.76;100753.88;1692220;84;21549;-68
2021/09/27 02:24:18;;;;;;;3.35;1.25;;;;;;;9.08;70.91;100751.72;1701978;83;22223;-69
2021/09/27 02:26:50;;;;;;;2.72;1.45;;;;;;;9.07;71.14;100756.15;1703215;82;21914;-68
2021/09/27 02:29:17;;;;;;;2.72;1.40;;;;;;;9.08;71.31;100756.52;1704156;82;20946;-69
2021/09/27 02:32:07;;;;;;;3.05;1.40;;;;;;;9.08;71.34;100756.98;1697780;83;20960;-68
2021/09/27 02:34:48;;;;;;;3.70;1.50;;;;;;;9.10;71.48;100760.36;1681115;83;20981;-68
2021/09/27 02:37:45;;;;;;;5.22;1.62;;;;;;;9.10;71.49;100766.95;1703551;83;21496;-68
2021/09/27 02:40:38;;;;;;;3.77;1.32;;;;;;;9.09;71.53;100769.22;1697836;82;22218;-68
2021/09/27 02:43:08;;;;;;;2.02;1.30;;;;;;;9.07;71.48;100761.42;1688402;84;21020;-68
2021/09/27 02:45:34;;;;;;;3.72;1.50;;;;;;;9.06;71.46;100768.08;1702013;84;20966;-68
2021/09/27 02:48:13;;;;;;;3.62;1.40;;;;;;;9.04;71.46;100766.88;1703604;82;21002;-68
2021/09/27 02:50:52;;;;;;;2.05;1.40;;;;;;;9.03;71.49;100773.56;1699405;82;21023;-70
2021/09/27 02:53:20;;;;;;;2.37;1.40;;;;;;;9.00;71.49;100771.14;1665769;84;21827;-69
2021/09/27 02:56:17;;;;;;;2.87;1.30;;;;;;;8.97;71.61;100773.96;1702883;83;21395;-69
2021/09/27 02:59:38;;;;;;;3.12;1.50;;;;;;;8.94;71.63;100777.66;1702667;83;20999;-70
2021/09/27 03:02:17;;;;;;;3.22;1.52;;;;;;;8.93;71.66;100775.97;1663147;84;21450;-68
2021/09/27 03:05:07;;;;;;;2.92;1.50;;;;;;;8.88;71.67;100773.66;1684643;84;21372;-68
2021/09/27 03:07:51;;;;;;;2.55;1.40;;;;;;;8.84;71.72;100777.41;1703145;83;21832;-69
2021/09/27 03:10:41;;;;;;;3.62;1.40;;;;;;;8.82;71.77;100774.52;1691510;84;20970;-69
2021/09/27 03:13:19;;;;;;;2.60;1.40;;;;;;;8.79;71.73;100773.41;1695831;82;21006;-68
2021/09/27 03:16:03;;;;;;;4.37;1.47;;;;;;;8.74;71.89;100774.17;1703023;84;21572;-68
2021/09/27 03:19:13;;;;;;;2.37;1.37;;;;;;;8.70;71.93;100777.48;1701892;84;21001;-68
2021/09/27 03:22:06;;;;;;;3.20;1.50;;;;;;;8.67;71.92;100777.66;1657554;85;22291;-68
2021/09/27 03:24:56;;;;;;;2.33;1.40;;;;;;;8.64;71.86;100775.72;1657006;86;21020;-68
2021/09/27 03:28:06;;;;;;;2.98;1.30;;;;;;;8.57;72.08;100776.09;1688796;83;21020;-68
2021/09/27 03:31:09;;;;;;;2.50;1.30;;;;;;;8.54;72.21;100772.36;1697761;84;21035;-68
2021/09/27 03:33:59;;;;;;;3.00;1.40;;;;;;;8.49;72.36;100781.05;1623670;85;21371;-68
2021/09/27 03:37:04;;;;;;;3.33;1.45;;;;;;;8.48;72.36;100773.22;1671998;85;22248;-67
2021/09/27 03:39:51;;;;;;;3.20;1.40;;;;;;;8.45;72.41;100776.05;1684116;85;21108;-68
2021/09/27 03:42:32;;;;;;;2.85;1.22;;;;;;;8.41;72.61;100774.58;1696283;84;20978;-68
2021/09/27 03:45:19;;;;;;;5.53;1.50;;;;;;;8.37;72.68;100772.59;1667648;83;21057;-68
2021/09/27 03:48:03;;;;;;;3.75;1.45;;;;;;;8.31;72.81;100774.28;1684523;84;20969;-68
2021/09/27 03:50:39;;;;;;;;;;;;;;;8.30;72.86;100776.55;1696698;84;22500;-69
2021/09/27 03:53:18;;;;;;;3.77;1.45;;;;;;;8.28;72.95;100775.77;1684478;84;20134;-67
2021/09/27 03:55:53;;;;;;;5.87;2.37;;;;;;;8.24;73.02;100781.71;1702133;84;20984;-67
2021/09/27 03:58:33;;;;;;;5.83;2.10;;;;;;;8.24;73.21;100788.77;1678170;84;21021;-67
2021/09/27 04:01:14;;;;;;;5.20;1.70;;;;;;;8.24;73.27;100792.71;1688642;84;21011;-67
2021/09/27 04:04:29;;;;;;;10.40;7.62;;;;;;;8.22;73.33;100793.28;1671391;85;22563;-67
2021/09/27 04:07:07;;;;;;;9.75;8.03;;;;;;;8.18;73.37;100789.14;1672538;85;21423;-67
2021/09/27 04:10:03;;;;;;;7.65;5.08;;;;;;;8.18;73.47;100790.45;1681380;84;21079;-67
2021/09/27 04:12:46;;;;;;;6.00;2.35;;;;;;;8.16;73.54;100794.97;1685671;84;21103;-67
2021/09/27 04:15:55;;;;;;;3.98;1.70;;;;;;;8.13;73.56;100792.07;1695558;84;20995;-67
2021/09/27 04:18:36;;;;;;;8.00;6.83;;;;;;;8.08;73.63;100791.50;1671914;85;21847;-68
2021/09/27 04:21:19;;;;;;;8.98;5.90;;;;;;;8.08;73.69;100790.19;1676079;85;21025;-68
2021/09/27 04:24:16;;;;;;;9.83;5.35;;;;;;;8.11;73.79;100794.44;1676564;85;21084;-68
2021/09/27 04:26:51;;;;;;;6.65;4.33;;;;;;;8.13;73.94;100803.07;1692989;84;21024;-68
2021/09/27 04:29:39;;;;;;;15.93;10.58;;;;;;;8.14;74.03;100800.34;1678740;84;21001;-68
2021/09/27 04:32:32;;;;;;;16.45;8.70;;;;;;;8.17;74.11;100796.19;1677697;85;21817;-69
2021/09/27 04:35:33;;;;;;;39.23;17.75;;;;;;;8.20;74.21;100803.91;1672947;84;21039;-69
2021/09/27 04:38:02;;;;;;;39.70;19.17;;;;;;;8.21;74.29;100800.81;1677188;84;21010;-70
2021/09/27 04:40:52;;;;;;;32.53;13.58;;;;;;;8.23;74.27;100810.28;1678235;85;21355;-70
2021/09/27 04:43:49;;;;;;;38.10;13.38;;;;;;;8.27;74.27;100811.77;1600187;85;21013;-69
2021/09/27 04:46:40;;;;;;;36.45;12.58;;;;;;;8.29;74.39;100809.88;1677343;85;21869;-69
2021/09/27 04:49:30;;;;;;;25.08;11.20;;;;;;;8.34;74.39;100812.24;1686183;84;20976;-69
2021/09/27 04:52:19;;;;;;;12.45;6.97;;;;;;;8.37;74.44;100807.28;1691537;83;21096;-69
2021/09/27 04:55:27;;;;;;;8.48;5.15;;;;;;;8.41;74.46;100807.48;1658911;85;21028;-68
2021/09/27 04:58:26;;;;;;;7.42;4.40;;;;;;;8.44;74.48;100803.33;1659838;85;21102;-67
2021/09/27 05:01:18;;;;;;;6.20;4.25;;;;;;;8.52;74.44;100804.53;1665254;84;21873;-69
2021/09/27 05:04:23;;;;;;;4.22;2.20;;;;;;;8.51;74.58;100804.16;1671683;85;20956;-69
2021/09/27 05:07:24;;;;;;;3.22;2.00;;;;;;;8.52;74.67;100807.16;1678457;85;21079;-69
2021/09/27 05:10:31;;;;;;;10.95;6.50;;;;;;;8.58;74.61;100805.91;1678574;83;20991;-68
2021/09/27 05:13:19;;;;;;;7.28;4.80;;;;;;;8.62;74.54;100808.73;1677861;85;21041;-70
2021/09/27 05:16:12;;;;;;;3.02;1.80;;;;;;;8.67;74.51;100814.53;1678096;84;21844;-70
2021/09/27 05:19:04;;;;;;;3.85;2.45;;;;;;;8.70;74.46;100811.72;1676552;85;21312;-70
2021/09/27 05:22:00;;;;;;;5.08;1.57;;;;;;;8.73;74.41;100814.62;1677467;85;21486;-70
2021/09/27 05:24:38;;;;;;;3.92;2.90;;;;;;;8.77;74.32;100822.69;1677218;82;21024;-71
2021/09/27 05:27:29;;;;;;;4.20;1.65;;;;;;;8.77;74.30;100816.94;1670750;85;20975;-71
2021/09/27 05:30:24;;;;;;;3.27;2.20;;;;;;;8.81;74.33;100821.56;1678072;85;21782;-70
2021/09/27 05:33:11;;;;;;;2.87;1.52;;;;;;;8.87;74.31;100815.40;1678714;84;21505;-71
2021/09/27 05:35:53;;;;;;;4.60;1.50;;;;;;;8.93;74.19;100819.44;1677963;84;20971;-69
2021/09/27 05:38:54;;;;;;;2.20;1.45;;;;;;;8.95;74.00;100813.59;1672927;85;21095;-71
2021/09/27 05:41:37;;;;;;;4.58;1.40;;;;;;;8.96;74.02;100808.69;1690357;84;21040;-71
2021/09/27 05:44:26;;;;;;;3.27;1.30;;;;;;;9.02;73.91;100814.03;1666092;85;21425;-70
2021/09/27 05:47:23;;;;;;;2.47;1.50;;;;;;;9.08;73.86;100811.85;1664512;84;20960;-69
2021/09/27 05:50:06;;;;;;;9.90;1.50;;;;;;;9.15;73.67;100810.95;1672894;84;21019;-69
2021/09/27 05:53:00;;;;;;;4.55;2.20;;;;;;;9.17;73.56;100809.09;1683463;84;21443;-68
2021/09/27 05:55:58;;;;;;;2.62;1.80;;;;;;;9.20;73.43;100812.82;1684627;84;21448;-68
2021/09/27 05:59:01;;;;;;;4.55;1.90;;;;;;;9.24;73.33;100814.77;1659052;86;21907;-68
2021/09/27 06:01:42;;;;;;;3.27;1.40;;;;;;;9.31;73.16;100809.47;1671805;85;20966;-68
2021/09/27 06:04:48;;;;;;;3.67;1.15;;;;;;;9.41;73.12;100811.85;1698462;84;20966;-68
2021/09/27 06:07:34;;;;;;;3.27;1.30;;;;;;;9.49;72.90;100818.77;1696200;83;21036;-68
2021/09/27 06:10:15;;;;;;;2.55;1.32;;;;;;;9.57;72.64;100828.81;1678192;83;21010;-68
2021/09/27 06:13:23;;;;;;;2.83;1.60;;;;;;;9.62;72.38;100828.84;1697540;84;22785;-68
2021/09/27 06:15:54;;;;;;;4.90;2.27;;;;;;;9.63;72.17;100823.09;1651357;84;21006;-67
2021/09/27 06:19:06;;;;;;;4.95;1.30;;;;;;;9.67;71.86;100821.95;1675916;83;21019;-68
2021/09/27 06:22:10;;;;;;;2.47;1.20;;;;;;;9.68;71.62;100822.33;1662848;84;21020;-68
2021/09/27 06:25:05;;;;;;;2.05;1.20;;;;;;;9.72;71.42;100830.38;1692128;84;20945;-71
2021/09/27 06:27:49;;;;;;;3.75;2.27;;;;;;;9.72;71.26;100827.27;1669689;84;21970;-67
2021/09/27 06:30:28;;;;;;;2.77;1.00;;;;;;;9.75;71.10;100823.13;1669595;86;20997;-67
2021/09/27 06:33:28;;;;;;;3.62;1.20;;;;;;;9.75;70.92;100830.20;1691557;83;20996;-68
2021/09/27 06:35:54;;;;;;;3.00;1.05;;;;;;;9.74;70.97;100826.68;1669864;83;20996;-67
2021/09/27 06:38:31;;;;;;;3.83;1.20;;;;;;;9.87;70.87;100829.81;1678185;84;21025;-66
2021/09/27 06:40:58;;;;;;;1.50;0.90;;;;;;;9.88;70.85;100823.11;1677720;85;21840;-67
2021/09/27 06:43:25;;;;;;;2.58;1.00;;;;;;;10.03;70.84;100815.42;1650667;85;20961;-66
2021/09/27 06:45:55;;;;;;;1.92;1.20;;;;;;;10.16;70.61;100815.91;1676594;85;21009;-66
2021/09/27 06:48:21;;;;;;;2.10;1.10;;;;;;;10.25;70.35;100817.45;1686648;84;21016;-67
2021/09/27 06:50:49;;;;;;;1.10;1.00;;;;;;;10.34;70.18;100812.00;1665961;85;20993;-68
2021/09/27 06:53:15;;;;;;;2.95;1.15;;;;;;;10.46;70.00;100822.16;1654376;85;21831;-67
2021/09/27 06:55:43;;;;;;;3.55;1.20;;;;;;;10.59;69.80;100813.22;1692053;84;21069;-66
2021/09/27 06:58:10;;;;;;;4.67;1.30;;;;;;;10.67;69.25;100813.99;1680698;84;21075;-65
2021/09/27 07:00:36;;;;;;;1.50;1.12;;;;;;;10.73;68.74;100816.20;1697657;84;20956;-67
2021/09/27 07:03:05;;;;;;;4.35;1.17;;;;;;;10.78;68.69;100814.05;1671205;85;21068;-67
2021/09/27 07:05:32;;;;;;;1.05;0.90;;;;;;;10.89;68.55;100817.22;1695637;84;21799;-67
2021/09/27 07:08:00;;;;;;;4.90;1.00;;;;;;;11.00;68.33;100819.06;1666840;85;22418;-67
2021/09/27 07:10:28;;;;;;;4.72;1.75;;;;;;;11.13;68.11;100826.47;1634287;85;20988;-67
2021/09/27 07:12:55;;;;;;;6.05;3.22;;;;;;;11.18;67.20;100818.54;1703322;83;21505;-66
2021/09/27 07:15:22;;;;;;;8.25;5.53;;;;;;;11.20;67.02;100818.45;1677762;85;21006;-67
2021/09/27 07:17:48;;;;;;;3.20;2.17;;;;;;;11.18;66.74;100817.22;1678045;85;21838;-66
2021/09/27 07:20:20;;;;;;;4.28;1.30;;;;;;;11.21;66.61;100813.52;1687765;84;20948;-68
2021/09/27 07:22:46;;;;;;;2.02;1.15;;;;;;;11.25;66.38;100817.61;1670482;84;21321;-68
2021/09/27 07:25:13;;;;;;;3.00;1.15;;;;;;;11.28;66.34;100816.05;1677861;85;21889;-68
2021/09/27 07:27:40;;;;;;;3.25;1.12;;;;;;;11.38;66.47;100821.01;1681172;83;21057;-68
2021/09/27 07:30:12;;;;;;;1.40;1.05;;;;;;;11.49;66.11;100812.77;1683103;85;21878;-67
2021/09/27 07:32:39;;;;;;;1.80;1.00;;;;;;;11.56;65.97;100817.93;1683358;84;22185;-69
2021/09/27 07:35:07;;;;;;;2.12;1.00;;;;;;;11.67;65.94;100827.20;1655879;85;21336;-69
2021/09/27 07:37:34;;;;;;;4.20;1.60;;;;;;;11.79;65.71;100824.13;1683088;85;21688;-68
2021/09/27 07:40:01;;;;;;;1.67;0.93;;;;;;;11.87;64.96;100825.70;1682304;85;21672;-69
2021/09/27 07:42:28;;;;;;;2.52;1.00;;;;;;;11.84;64.65;100828.11;1663797;83;21794;-69
2021/09/27 07:44:54;;;;;;;3.58;1.22;;;;;;;11.81;64.50;100821.73;1687718;83;21009;-68
2021/09/27 07:47:20;;;;;;;2.05;0.98;;;;;;;11.88;64.88;100828.25;1683649;85;21502;-68
2021/09/27 07:49:47;;;;;;;3.60;1.00;;;;;;;12.04;64.85;100825.23;1684532;83;21413;-69
2021/09/27 07:52:13;;;;;;;3.05;1.17;;;;;;;12.23;64.69;100825.95;1683412;85;21042;-68
2021/09/27 07:54:40;;;;;;;2.37;1.00;;;;;;;12.39;64.56;100822.45;1685063;83;21888;-69
2021/09/27 07:57:08;;;;;;;3.75;0.70;;;;;;;12.53;63.11;100831.45;1693110;83;21073;-69
2021/09/27 07:59:35;;;;;;;2.10;0.80;;;;;;;12.52;62.41;100825.80;1692013;84;20988;-69
2021/09/27 08:02:03;;;;;;;2.27;0.88;;;;;;;12.50;61.78;100822.92;1688231;83;21038;-69
2021/09/27 08:04:31;;;;;;;1.07;0.70;;;;;;;12.52;61.85;100827.13;1683215;85;21059;-69
2021/09/27 08:06:57;;;;;;;2.50;0.98;;;;;;;12.60;62.06;100818.08;1666736;85;21866;-68
2021/09/27 08:09:24;;;;;;;6.15;1.05;;;;;;;12.72;61.56;100818.89;1684634;83;21073;-70
2021/09/27 08:11:50;;;;;;;1.32;0.60;;;;;;;12.82;61.71;100827.77;1693305;83;21056;-69
2021/09/27 08:14:17;;;;;;;1.30;0.70;;;;;;;12.92;61.17;100821.23;1676901;84;21343;-68
2021/09/27 08:16:44;;;;;;;1.57;0.70;;;;;;;12.90;60.32;100826.67;1689395;83;21494;-69
2021/09/27 08:19:10;;;;;;;1.15;0.65;;;;;;;12.88;60.01;100819.81;1683311;85;24012;-69
2021/09/27 08:21:38;;;;;;;2.12;0.78;;;;;;;12.95;59.49;100822.81;1678149;84;21004;-69
2021/09/27 08:24:05;;;;;;;0.90;0.60;;;;;;;13.03;58.65;100817.72;1683321;85;21083;-71
2021/09/27 08:26:31;;;;;;;1.98;0.53;;;;;;;13.16;58.41;100812.59;1682675;83;21214;-69
2021/09/27 08:28:58;;;;;;;0.62;0.57;;;;;;;13.21;56.88;100812.71;1677962;85;21499;-68
2021/09/27 08:31:24;;;;;;;0.82;0.40;;;;;;;13.19;56.53;100811.52;1678483;84;22342;-69
2021/09/27 08:33:52;;;;;;;0.82;0.60;;;;;;;13.21;56.38;100809.57;1678405;85;21451;-69
2021/09/27 08:36:21;;;;;;;0.40;0.40;;;;;;;13.32;56.72;100812.19;1678780;83;21525;-68
2021/09/27 08:38:47;;;;;;;0.70;0.50;;;;;;;13.42;56.37;100813.59;1677926;84;21075;-68
2021/09/27 08:41:33;;;;;;;1.52;0.60;;;;;;;13.46;56.24;100813.67;1660966;85;21055;-68
2021/09/27 08:44:38;;;;;;;0.88;0.55;;;;;;;13.56;56.31;100808.42;1666125;83;22227;-67
2021/09/27 08:47:29;;;;;;;3.70;0.60;;;;;;;13.69;56.48;100813.88;1677589;84;20968;-67
2021/09/27 08:50:10;;;;;;;1.52;0.40;;;;;;;13.83;55.63;100814.52;1681610;84;21044;-70
2021/09/27 08:52:39;;;;;;;1.50;0.57;;;;;;;13.83;55.37;100816.69;1654266;84;21020;-69
2021/09/27 08:55:10;;;;;;;0.70;0.50;;;;;;;13.85;55.08;100813.41;1678655;85;20960;-70
2021/09/27 08:58:05;;;;;;;1.65;0.40;;;;;;;13.92;54.83;100805.77;1676751;84;21788;-69
2021/09/27 09:00:54;;;;;;;1.05;0.47;;;;;;;14.01;54.55;100802.31;1677378;85;21014;-68
2021/09/27 09:03:35;;;;;;;0.78;0.40;;;;;;;14.10;54.57;100805.98;1677968;85;21019;-69
2021/09/27 09:06:08;;;;;;;0.33;0.30;;;;;;;14.26;52.65;100811.62;1678199;84;21066;-69
2021/09/27 09:08:50;;;;;;;0.62;0.40;;;;;;;14.29;52.54;100808.72;1677955;85;20955;-67
2021/09/27 09:11:51;;;;;;;3.62;0.40;;;;;;;14.30;51.94;100807.25;1671988;85;21000;-69
2021/09/27 09:14:47;;;;;;;0.60;0.50;;;;;;;14.44;52.32;100810.00;1675322;85;21089;-69
2021/09/27 09:17:39;;;;;;;1.90;0.40;;;;;;;14.68;50.88;100812.83;1671388;84;20968;-70
2021/09/27 09:20:21;;;;;;;0.40;0.30;;;;;;;14.70;49.86;100813.52;1661147;85;20971;-69
2021/09/27 09:22:48;;;;;;;1.15;0.30;;;;;;;14.56;50.34;100825.38;1673180;85;20968;-69
2021/09/27 09:25:28;;;;;;;0.30;0.30;;;;;;;14.49;50.65;100827.75;1676389;84;21854;-69
2021/09/27 09:27:57;;;;;;;1.70;0.35;;;;;;;14.46;50.96;100815.20;1681446;84;20941;-68
2021/09/27 09:30:37;;;;;;;1.37;0.30;;;;;;;14.39;50.13;100812.23;1680475;84;21466;-69
2021/09/27 09:33:03;;;;;;;0.20;0.20;;;;;;;14.24;50.12;100819.73;1690428;84;21084;-68
2021/09/27 09:35:31;;;;;;;0.75;0.33;;;;;;;14.15;50.42;100813.05;1677194;84;21043;-70
2021/09/27 09:38:10;;;;;;;0.23;0.23;;;;;;;14.11;50.14;100813.81;1676549;84;22515;-70
2021/09/27 09:40:50;;;;;;;0.62;0.45;;;;;;;14.09;50.22;100817.56;1648988;86;21009;-68
2021/09/27 09:43:29;;;;;;;0.37;0.35;;;;;;;14.04;50.87;100817.97;1665033;85;21385;-70
2021/09/27 09:46:16;;;;;;;1.05;0.37;;;;;;;14.06;51.44;100818.67;1633875;85;21015;-68
2021/09/27 09:49:08;;;;;;;2.15;0.60;;;;;;;14.08;51.24;100820.70;1677898;84;21015;-68
2021/09/27 09:51:49;;;;;;;1.10;0.40;;;;;;;14.11;51.39;100820.45;1705191;84;21431;-66
2021/09/27 09:54:21;;;;;;;1.15;0.40;;;;;;;14.11;51.30;100816.48;1693375;84;20978;-69
2021/09/27 09:57:06;;;;;;;0.60;0.30;;;;;;;14.11;51.57;100819.13;1669515;84;20971;-68
2021/09/27 09:59:38;;;;;;;0.50;0.40;;;;;;;14.13;51.24;100811.86;1644584;85;21024;-69
2021/09/27 10:02:10;;;;;;;0.60;0.30;;;;;;;14.17;51.48;100814.59;1670672;84;21120;-68
2021/09/27 10:04:43;;;;;;;0.70;0.30;;;;;;;14.23;51.85;100818.05;1708158;82;21826;-68
2021/09/27 10:07:22;;;;;;;0.83;0.30;;;;;;;14.27;51.37;100816.80;1668893;84;21003;-67
2021/09/27 10:10:00;;;;;;;0.88;0.40;;;;;;;14.27;51.54;100815.46;1672436;85;21650;-67
2021/09/27 10:12:49;;;;;;;1.52;0.40;;;;;;;14.19;51.36;100823.78;1699150;84;21012;-68
2021/09/27 10:15:41;;;;;;;0.75;0.30;;;;;;;14.13;51.71;100818.50;1665000;86;20953;-68
2021/09/27 10:18:29;;;;;;;0.42;0.40;;;;;;;14.17;51.93;100821.72;1672244;84;23330;-68
2021/09/27 10:21:12;;;;;;;1.12;0.80;;;;;;;14.18;50.72;100822.91;1678049;85;21086;-68
2021/09/27 10:23:45;;;;;;;1.53;0.80;;;;;;;14.07;50.81;100816.86;1676169;85;21120;-68
2021/09/27 10:26:27;;;;;;;1.90;0.70;;;;;;;13.98;51.14;100819.33;1676580;85;21049;-69
2021/09/27 10:28:57;;;;;;;0.95;0.50;;;;;;;14.00;51.27;100827.20;1673547;84;21040;-67
2021/09/27 10:31:25;;;;;;;0.75;0.40;;;;;;;13.96;51.17;100825.27;1650904;86;21990;-67
2021/09/27 10:33:57;;;;;;;1.45;0.40;;;;;;;13.92;51.11;100827.01;1688096;84;21019;-67
2021/09/27 10:36:35;;;;;;;0.30;0.30;;;;;;;13.94;51.07;100827.72;1686114;84;21473;-68
2021/09/27 10:39:05;;;;;;;0.30;0.30;;;;;;;13.93;50.82;100830.86;1656352;85;21493;-67
2021/09/27 10:41:59;;;;;;;1.98;0.40;;;;;;;13.92;51.03;100828.34;1658520;85;21016;-68
2021/09/27 10:44:31;;;;;;;0.55;0.40;;;;;;;13.88;50.57;100829.07;1678528;84;21888;-67
2021/09/27 10:47:05;;;;;;;0.62;0.40;;;;;;;13.88;50.29;100831.72;1673881;84;20944;-68
2021/09/27 10:49:44;;;;;;;1.10;0.40;;;;;;;13.90;50.52;100831.13;1678343;84;21012;-68
2021/09/27 10:52:24;;;;;;;0.30;0.30;;;;;;;13.95;50.81;100824.08;1666776;85;21099;-68
2021/09/27 10:55:26;;;;;;;1.45;0.30;;;;;;;13.93;51.11;100820.72;1678716;84;21051;-68
2021/09/27 10:58:02;;;;;;;1.00;0.20;;;;;;;13.95;50.51;100824.92;1682347;84;21858;-68
2021/09/27 11:00:42;;;;;;;1.02;0.33;;;;;;;14.02;49.87;100820.77;1676362;84;21008;-67
2021/09/27 11:03:41;;;;;;;2.08;0.30;;;;;;;14.01;49.85;100824.89;1662811;85;20964;-68
2021/09/27 11:06:57;;;;;;;1.17;0.30;;;;;;;14.07;49.97;100823.01;1676084;85;21474;-68
2021/09/27 11:09:32;;;;;;;0.30;0.30;;;;;;;14.09;48.89;100817.56;1664098;84;20952;-70
2021/09/27 11:12:20;;;;;;;1.15;0.50;;;;;;;14.17;49.26;100825.70;1665730;85;22551;-68
2021/09/27 11:14:57;;;;;;;4.50;2.02;;;;;;;14.13;49.01;100816.34;1676650;84;20997;-71
2021/09/27 11:17:51;;;;;;;2.27;0.90;;;;;;;14.11;49.35;100812.98;1678889;84;20976;-67
2021/09/27 11:20:53;;;;;;;2.10;1.22;;;;;;;14.11;49.05;100813.81;1657896;85;20960;-70
2021/09/27 11:23:27;;;;;;;5.60;3.33;;;;;;;14.11;49.08;100809.84;1690976;84;21353;-67
2021/09/27 11:26:21;;;;;;;137.88;64.00;;;;;;;14.15;49.77;100806.41;1670683;86;21827;-68
2021/09/27 11:29:05;;;;;;;73.27;37.17;;;;;;;14.18;49.95;100808.30;1662410;85;21035;-68
2021/09/27 11:31:36;;;;;;;19.80;13.10;;;;;;;14.24;49.98;100806.45;1683570;84;21035;-68
2021/09/27 11:34:42;;;;;;;7.10;3.83;;;;;;;14.29;49.54;100806.89;1686780;85;21527;-68
2021/09/27 11:37:25;;;;;;;3.92;3.10;;;;;;;14.30;49.30;100810.39;1708650;82;20968;-68
2021/09/27 11:40:15;;;;;;;3.55;2.75;;;;;;;14.23;48.65;100810.08;1709114;82;21807;-68
2021/09/27 11:43:13;;;;;;;2.70;2.45;;;;;;;14.17;49.15;100808.44;1689160;82;21062;-68
2021/09/27 11:45:46;;;;;;;0.70;0.70;;;;;;;14.13;49.37;100812.35;1717824;83;21054;-68
2021/09/27 11:48:21;;;;;;;2.67;0.90;;;;;;;14.07;49.26;100807.56;1708514;84;21039;-72
2021/09/27 11:51:12;;;;;;;0.37;0.37;;;;;;;14.02;49.60;100809.30;1677284;85;20955;-68
2021/09/27 11:53:50;;;;;;;1.12;1.02;;;;;;;14.03;49.52;100808.33;1680048;84;22471;-68
2021/09/27 11:56:36;;;;;;;0.60;0.50;;;;;;;14.10;49.38;100805.50;1691112;83;20994;-68
2021/09/27 11:59:21;;;;;;;0.30;0.30;;;;;;;14.21;49.44;100809.87;1717427;83;20964;-68
2021/09/27 12:02:13;;;;;;;0.40;0.30;;;;;;;14.33;49.24;100811.44;1708730;83;20971;-68
2021/09/27 12:05:17;;;;;;;0.30;0.30;;;;;;;14.50;49.76;100817.96;1708822;83;21457;-67
2021/09/27 12:07:53;;;;;;;1.00;0.35;;;;;;;14.71;49.78;100816.04;1708828;82;21624;-67
2021/09/27 12:10:40;;;;;;;2.27;0.30;;;;;;;14.83;48.62;100812.76;1708584;83;21051;-67
2021/09/27 12:13:19;;;;;;;0.53;0.30;;;;;;;14.87;48.46;100817.68;1707701;83;20996;-67
2021/09/27 12:16:01;;;;;;;0.33;0.30;;;;;;;14.84;47.70;100815.27;1696022;84;20968;-67
2021/09/27 12:18:38;;;;;;;0.72;0.50;;;;;;;14.72;47.65;100813.73;1686843;85;21020;-67
2021/09/27 12:21:26;;;;;;;0.50;0.40;;;;;;;14.65;48.17;100812.59;1708773;83;20940;-67
2021/09/27 12:24:01;;;;;;;1.15;0.50;;;;;;;14.62;48.29;100818.68;1708632;83;21075;-67
2021/09/27 12:26:35;;;;;;;0.70;0.50;;;;;;;14.60;48.43;100818.82;1705412;83;20967;-67
2021/09/27 12:29:16;;;;;;;1.12;0.60;;;;;;;14.55;48.56;100816.55;1701556;83;21035;-67
2021/09/27 12:32:00;;;;;;;1.30;0.70;;;;;;;14.50;48.94;100820.62;1700506;83;21003;-66
2021/09/27 12:34:38;;;;;;;2.05;0.53;;;;;;;14.46;49.41;100822.69;1700049;83;21067;-71